sensor_id;sensor_type;location;lat;lon;timestamp;pressure;altitude;pressure_sealevel;temperature;humidity
51259;BME280;37327;54.254;18.504;2022-09-01T00:01:41;101640.15;;;12.87;84.58
51259;BME280;37327;54.254;18.504;2022-09-01T00:04:55;101645.89;;;12.84;84.77
51259;BME280;37327;54.254;18.504;2022-09-01T00:08:05;101639.80;;;12.82;84.75
51259;BME280;37327;54.254;18.504;2022-09-01T00:11:16;101631.16;;;12.78;84.74
51259;BME280;37327;54.254;18.504;2022-09-01T00:14:32;101633.19;;;12.76;84.63
51259;BME280;37327;54.254;18.504;2022-09-01T00:17:44;101632.51;;;12.74;84.43
51259;BME280;37327;54.254;18.504;2022-09-01T00:20:55;101628.28;;;12.72;84.73
51259;BME280;37327;54.254;18.504;2022-09-01T00:27:23;101627.93;;;12.67;84.53
51259;BME280;37327;54.254;18.504;2022-09-01T00:30:27;101638.09;;;12.64;84.35
51259;BME280;37327;54.254;18.504;2022-09-01T00:33:58;101632.32;;;12.59;84.48
51259;BME280;37327;54.254;18.504;2022-09-01T00:37:10;101636.58;;;12.62;84.54
51259;BME280;37327;54.254;18.504;2022-09-01T00:40:21;101631.00;;;12.63;84.36
51259;BME280;37327;54.254;18.504;2022-09-01T00:43:39;101634.03;;;12.60;84.48
51259;BME280;37327;54.254;18.504;2022-09-01T00:46:47;101630.63;;;12.58;84.56
51259;BME280;37327;54.254;18.504;2022-09-01T00:49:52;101631.64;;;12.57;84.52
51259;BME280;37327;54.254;18.504;2022-09-01T00:53:01;101631.16;;;12.54;84.46
51259;BME280;37327;54.254;18.504;2022-09-01T00:56:15;101648.56;;;12.51;84.38
51259;BME280;37327;54.254;18.504;2022-09-01T00:59:28;101645.18;;;12.49;84.13
51259;BME280;37327;54.254;18.504;2022-09-01T01:06:01;101642.09;;;12.36;85.04
51259;BME280;37327;54.254;18.504;2022-09-01T01:09:17;101652.25;;;12.34;85.53
51259;BME280;37327;54.254;18.504;2022-09-01T01:12:32;101654.95;;;12.34;86.24
51259;BME280;37327;54.254;18.504;2022-09-01T01:15:46;101654.28;;;12.32;86.90
51259;BME280;37327;54.254;18.504;2022-09-01T01:26:09;101659.02;;;12.38;88.61
51259;BME280;37327;54.254;18.504;2022-09-01T01:29:16;101651.58;;;12.40;88.69
51259;BME280;37327;54.254;18.504;2022-09-01T01:32:31;101646.52;;;12.45;88.82
51259;BME280;37327;54.254;18.504;2022-09-01T01:35:44;101648.56;;;12.51;88.74
51259;BME280;37327;54.254;18.504;2022-09-01T01:38:57;101636.06;;;12.58;88.24
51259;BME280;37327;54.254;18.504;2022-09-01T01:42:12;101626.92;;;12.68;87.52
51259;BME280;37327;54.254;18.504;2022-09-01T01:45:23;101624.22;;;12.76;87.45
51259;BME280;37327;54.254;18.504;2022-09-01T01:48:39;101627.76;;;12.84;87.10
51259;BME280;37327;54.254;18.504;2022-09-01T01:51:54;101621.84;;;12.89;86.89
51259;BME280;37327;54.254;18.504;2022-09-01T01:55:07;101625.04;;;12.93;86.82
51259;BME280;37327;54.254;18.504;2022-09-01T01:58:20;101625.55;;;12.96;86.65
51259;BME280;37327;54.254;18.504;2022-09-01T02:01:29;101626.91;;;13.00;86.46
51259;BME280;37327;54.254;18.504;2022-09-01T02:04:38;101623.20;;;13.01;86.78
51259;BME280;37327;54.254;18.504;2022-09-01T02:07:45;101617.77;;;13.01;86.63
51259;BME280;37327;54.254;18.504;2022-09-01T02:10:53;101617.60;;;13.03;86.29
51259;BME280;37327;54.254;18.504;2022-09-01T02:14:08;101614.90;;;13.03;85.67
51259;BME280;37327;54.254;18.504;2022-09-01T02:17:26;101614.02;;;13.02;85.61
51259;BME280;37327;54.254;18.504;2022-09-01T02:24:03;101612.02;;;13.04;85.19
51259;BME280;37327;54.254;18.504;2022-09-01T02:27:15;101608.61;;;13.02;84.51
51259;BME280;37327;54.254;18.504;2022-09-01T02:30:30;101607.76;;;13.02;84.28
51259;BME280;37327;54.254;18.504;2022-09-01T02:33:41;101597.76;;;13.02;83.79
51259;BME280;37327;54.254;18.504;2022-09-01T02:36:52;101608.61;;;13.02;83.79
51259;BME280;37327;54.254;18.504;2022-09-01T02:40:09;101603.02;;;13.04;83.81
51259;BME280;37327;54.254;18.504;2022-09-01T02:43:24;101600.83;;;12.99;83.59
51259;BME280;37327;54.254;18.504;2022-09-01T02:46:42;101600.99;;;12.98;83.92
51259;BME280;37327;54.254;18.504;2022-09-01T02:49:57;101597.62;;;12.96;83.94
51259;BME280;37327;54.254;18.504;2022-09-01T02:53:06;101591.34;;;12.95;84.15
51259;BME280;37327;54.254;18.504;2022-09-01T02:56:20;101587.97;;;12.93;84.19
51259;BME280;37327;54.254;18.504;2022-09-01T02:59:34;101587.10;;;12.93;84.45
51259;BME280;37327;54.254;18.504;2022-09-01T03:02:54;101588.80;;;12.94;84.48
51259;BME280;37327;54.254;18.504;2022-09-01T03:06:05;101587.97;;;12.93;84.51
51259;BME280;37327;54.254;18.504;2022-09-01T03:09:17;101587.97;;;12.93;84.56
51259;BME280;37327;54.254;18.504;2022-09-01T03:12:22;101592.52;;;12.93;84.56
51259;BME280;37327;54.254;18.504;2022-09-01T03:15:51;101597.10;;;12.92;84.81
51259;BME280;37327;54.254;18.504;2022-09-01T03:18:56;101598.81;;;12.93;84.81
51259;BME280;37327;54.254;18.504;2022-09-01T03:22:02;101598.64;;;12.95;84.97
51259;BME280;37327;54.254;18.504;2022-09-01T03:25:12;101600.66;;;12.93;84.88
51259;BME280;37327;54.254;18.504;2022-09-01T03:28:18;101596.27;;;12.92;85.20
51259;BME280;37327;54.254;18.504;2022-09-01T03:31:29;101594.75;;;12.89;85.32
51259;BME280;37327;54.254;18.504;2022-09-01T03:34:45;101594.75;;;12.89;85.57
51259;BME280;37327;54.254;18.504;2022-09-01T03:37:55;101598.30;;;12.90;85.71
51259;BME280;37327;54.254;18.504;2022-09-01T03:41:07;101600.84;;;12.91;85.62
51259;BME280;37327;54.254;18.504;2022-09-01T03:44:21;101598.64;;;12.95;85.62
51259;BME280;37327;54.254;18.504;2022-09-01T03:47:30;101599.48;;;12.95;85.67
51259;BME280;37327;54.254;18.504;2022-09-01T03:50:40;101598.45;;;12.96;85.60
51259;BME280;37327;54.254;18.504;2022-09-01T03:53:53;101590.98;;;12.98;85.85
51259;BME280;37327;54.254;18.504;2022-09-01T03:56:57;101591.87;;;12.99;85.73
51259;BME280;37327;54.254;18.504;2022-09-01T04:00:07;101587.27;;;12.99;85.93
51259;BME280;37327;54.254;18.504;2022-09-01T04:03:31;101599.80;;;13.00;85.92
51259;BME280;37327;54.254;18.504;2022-09-01T04:06:42;101602.34;;;13.02;85.69
51259;BME280;37327;54.254;18.504;2022-09-01T04:09:47;101595.92;;;13.03;85.60
51259;BME280;37327;54.254;18.504;2022-09-01T04:12:52;101597.76;;;13.02;85.61
51259;BME280;37327;54.254;18.504;2022-09-01T04:16:03;101590.33;;;13.04;85.47
51259;BME280;37327;54.254;18.504;2022-09-01T04:19:22;101595.56;;;13.06;85.46
51259;BME280;37327;54.254;18.504;2022-09-01T04:22:33;101593.72;;;13.07;85.52
51259;BME280;37327;54.254;18.504;2022-09-01T04:25:43;101588.30;;;13.07;85.64
51259;BME280;37327;54.254;18.504;2022-09-01T04:28:53;101598.27;;;13.06;85.61
51259;BME280;37327;54.254;18.504;2022-09-01T04:32:03;101600.48;;;13.11;85.63
51259;BME280;37327;54.254;18.504;2022-09-01T04:35:08;101596.56;;;13.13;85.81
51259;BME280;37327;54.254;18.504;2022-09-01T04:38:25;101600.13;;;13.14;85.83
51259;BME280;37327;54.254;18.504;2022-09-01T04:41:32;101591.99;;;13.14;86.08
51259;BME280;37327;54.254;18.504;2022-09-01T04:45:07;101593.53;;;13.16;86.87
51259;BME280;37327;54.254;18.504;2022-09-01T04:48:17;101594.70;;;13.14;87.14
51259;BME280;37327;54.254;18.504;2022-09-01T04:51:36;101602.84;;;13.14;87.35
51259;BME280;37327;54.254;18.504;2022-09-01T04:54:49;101608.26;;;13.14;87.66
51259;BME280;37327;54.254;18.504;2022-09-01T04:57:53;101602.16;;;13.12;88.26
51259;BME280;37327;54.254;18.504;2022-09-01T05:01:27;101598.77;;;13.10;89.03
51259;BME280;37327;54.254;18.504;2022-09-01T05:04:42;101600.48;;;13.11;89.42
51259;BME280;37327;54.254;18.504;2022-09-01T05:07:51;101593.19;;;13.11;89.11
51259;BME280;37327;54.254;18.504;2022-09-01T05:11:04;101589.12;;;13.15;89.40
51259;BME280;37327;54.254;18.504;2022-09-01T05:14:16;101599.43;;;13.20;89.36
51259;BME280;37327;54.254;18.504;2022-09-01T05:17:29;101601.28;;;13.28;89.54
51259;BME280;37327;54.254;18.504;2022-09-01T05:20:39;101601.99;;;13.38;89.27
51259;BME280;37327;54.254;18.504;2022-09-01T05:23:47;101605.65;;;13.53;88.96
51259;BME280;37327;54.254;18.504;2022-09-01T05:26:58;101600.02;;;13.63;87.86
51259;BME280;37327;54.254;18.504;2022-09-01T05:30:03;101604.39;;;13.72;87.12
51259;BME280;37327;54.254;18.504;2022-09-01T05:33:12;101601.85;;;13.79;86.41
51259;BME280;37327;54.254;18.504;2022-09-01T05:36:23;101601.75;;;13.95;86.03
51259;BME280;37327;54.254;18.504;2022-09-01T05:39:33;101596.05;;;14.13;84.97
51259;BME280;37327;54.254;18.504;2022-09-01T05:45:55;101594.27;;;14.29;83.36
51259;BME280;37327;54.254;18.504;2022-09-01T05:49:13;101595.84;;;14.46;82.88
51259;BME280;37327;54.254;18.504;2022-09-01T05:52:24;101592.67;;;14.66;82.30
51259;BME280;37327;54.254;18.504;2022-09-01T05:55:39;101594.17;;;14.68;81.53
51259;BME280;37327;54.254;18.504;2022-09-01T05:58:54;101598.66;;;14.61;81.30
51259;BME280;37327;54.254;18.504;2022-09-01T06:02:15;101601.41;;;14.76;81.05
51259;BME280;37327;54.254;18.504;2022-09-01T06:05:33;101595.86;;;14.92;80.59
51259;BME280;37327;54.254;18.504;2022-09-01T06:08:45;101594.94;;;15.15;79.99
51259;BME280;37327;54.254;18.504;2022-09-01T06:11:58;101590.48;;;15.37;78.91
51259;BME280;37327;54.254;18.504;2022-09-01T06:15:08;101589.63;;;15.51;77.62
51259;BME280;37327;54.254;18.504;2022-09-01T06:18:20;101586.15;;;15.72;77.08
51259;BME280;37327;54.254;18.504;2022-09-01T06:21:30;101593.23;;;16.03;75.52
51259;BME280;37327;54.254;18.504;2022-09-01T06:24:35;101597.20;;;16.37;74.01
51259;BME280;37327;54.254;18.504;2022-09-01T06:27:44;101610.74;;;16.73;72.73
51259;BME280;37327;54.254;18.504;2022-09-01T06:30:50;101598.63;;;16.76;70.55
51259;BME280;37327;54.254;18.504;2022-09-01T06:33:56;101598.03;;;16.59;70.41
51259;BME280;37327;54.254;18.504;2022-09-01T06:37:04;101598.81;;;16.31;71.01
51259;BME280;37327;54.254;18.504;2022-09-01T06:40:28;101591.74;;;16.37;72.02
51259;BME280;37327;54.254;18.504;2022-09-01T06:44:07;101597.43;;;16.42;70.99
51259;BME280;37327;54.254;18.504;2022-09-01T06:47:30;101591.98;;;16.42;71.34
51259;BME280;37327;54.254;18.504;2022-09-01T06:51:02;101587.97;;;16.38;69.00
51259;BME280;37327;54.254;18.504;2022-09-01T06:54:20;101595.99;;;16.25;68.71
51259;BME280;37327;54.254;18.504;2022-09-01T06:57:27;101593.02;;;16.19;67.55
51259;BME280;37327;54.254;18.504;2022-09-01T07:00:44;101607.91;;;16.02;66.33
51259;BME280;37327;54.254;18.504;2022-09-01T07:03:59;101611.95;;;15.91;67.36
51259;BME280;37327;54.254;18.504;2022-09-01T07:07:20;101615.54;;;15.92;67.59
51259;BME280;37327;54.254;18.504;2022-09-01T07:10:46;101607.62;;;15.97;68.05
51259;BME280;37327;54.254;18.504;2022-09-01T07:13:56;101610.75;;;15.94;67.92
51259;BME280;37327;54.254;18.504;2022-09-01T07:17:07;101616.36;;;16.07;67.67
51259;BME280;37327;54.254;18.504;2022-09-01T07:20:15;101602.34;;;16.10;66.93
51259;BME280;37327;54.254;18.504;2022-09-01T07:23:23;101601.97;;;16.13;66.55
51259;BME280;37327;54.254;18.504;2022-09-01T07:26:34;101606.12;;;16.09;66.16
51259;BME280;37327;54.254;18.504;2022-09-01T07:29:42;101615.02;;;16.03;66.86
51259;BME280;37327;54.254;18.504;2022-09-01T07:32:51;101624.24;;;16.02;67.71
51259;BME280;37327;54.254;18.504;2022-09-01T07:35:58;101615.30;;;16.08;68.11
51259;BME280;37327;54.254;18.504;2022-09-01T07:39:08;101622.82;;;16.06;68.36
51259;BME280;37327;54.254;18.504;2022-09-01T07:42:12;101614.73;;;16.13;67.76
51259;BME280;37327;54.254;18.504;2022-09-01T07:45:19;101611.19;;;16.34;67.97
51259;BME280;37327;54.254;18.504;2022-09-01T07:48:28;101620.16;;;16.49;67.61
51259;BME280;37327;54.254;18.504;2022-09-01T07:51:32;101626.77;;;16.40;67.18
51259;BME280;37327;54.254;18.504;2022-09-01T07:54:43;101627.48;;;16.27;67.34
51259;BME280;37327;54.254;18.504;2022-09-01T07:57:48;101627.84;;;16.61;67.99
51259;BME280;37327;54.254;18.504;2022-09-01T08:01:29;101625.74;;;17.06;64.33
51259;BME280;37327;54.254;18.504;2022-09-01T08:04:37;101627.63;;;17.33;61.56
51259;BME280;37327;54.254;18.504;2022-09-01T08:07:50;101632.38;;;17.53;59.07
51259;BME280;37327;54.254;18.504;2022-09-01T08:10:56;101629.48;;;17.61;58.41
51259;BME280;37327;54.254;18.504;2022-09-01T08:14:10;101634.15;;;17.32;57.92
51259;BME280;37327;54.254;18.504;2022-09-01T08:17:16;101642.62;;;17.16;60.06
51259;BME280;37327;54.254;18.504;2022-09-01T08:23:51;101624.08;;;17.68;59.86
51259;BME280;37327;54.254;18.504;2022-09-01T08:26:55;101631.76;;;17.86;58.33
51259;BME280;37327;54.254;18.504;2022-09-01T08:30:33;101632.38;;;17.53;57.13
51259;BME280;37327;54.254;18.504;2022-09-01T08:33:41;101640.60;;;17.25;57.86
51259;BME280;37327;54.254;18.504;2022-09-01T08:36:46;101639.53;;;16.97;57.50
51259;BME280;37327;54.254;18.504;2022-09-01T08:39:51;101644.69;;;16.86;58.50
51259;BME280;37327;54.254;18.504;2022-09-01T08:43:06;101640.17;;;16.78;58.47
51259;BME280;37327;54.254;18.504;2022-09-01T08:46:16;101636.80;;;16.76;58.82
51259;BME280;37327;54.254;18.504;2022-09-01T08:49:24;101636.04;;;16.82;58.97
51259;BME280;37327;54.254;18.504;2022-09-01T08:52:34;101640.17;;;16.78;58.26
51259;BME280;37327;54.254;18.504;2022-09-01T08:55:46;101637.82;;;16.75;58.19
51259;BME280;37327;54.254;18.504;2022-09-01T08:58:57;101643.43;;;16.88;58.52
51259;BME280;37327;54.254;18.504;2022-09-01T09:02:42;101630.30;;;16.98;57.80
51259;BME280;37327;54.254;18.504;2022-09-01T09:05:56;101632.23;;;17.05;54.70
51259;BME280;37327;54.254;18.504;2022-09-01T09:09:05;101625.71;;;16.99;54.86
51259;BME280;37327;54.254;18.504;2022-09-01T09:15:32;101644.52;;;16.72;56.59
51259;BME280;37327;54.254;18.504;2022-09-01T09:21:59;101617.76;;;16.61;57.90
51259;BME280;37327;54.254;18.504;2022-09-01T09:25:16;101629.27;;;16.78;58.46
51259;BME280;37327;54.254;18.504;2022-09-01T09:29:22;101618.77;;;17.25;59.22
51259;BME280;37327;54.254;18.504;2022-09-01T09:35:49;101620.53;;;17.39;56.51
51259;BME280;37327;54.254;18.504;2022-09-01T09:39:06;101625.02;;;17.19;55.98
51259;BME280;37327;54.254;18.504;2022-09-01T09:42:17;101625.74;;;17.34;55.04
51259;BME280;37327;54.254;18.504;2022-09-01T09:45:27;101629.53;;;17.68;54.54
51259;BME280;37327;54.254;18.504;2022-09-01T09:48:31;101622.17;;;18.03;54.01
51259;BME280;37327;54.254;18.504;2022-09-01T09:51:43;101625.16;;;18.22;52.99
51259;BME280;37327;54.254;18.504;2022-09-01T09:55:03;101635.57;;;17.91;53.39
51259;BME280;37327;54.254;18.504;2022-09-01T09:58:11;101651.81;;;17.36;57.80
51259;BME280;37327;54.254;18.504;2022-09-01T10:01:28;101646.54;;;16.85;62.65
51259;BME280;37327;54.254;18.504;2022-09-01T10:04:41;101652.34;;;16.39;66.38
51259;BME280;37327;54.254;18.504;2022-09-01T10:07:52;101648.81;;;16.24;69.68
51259;BME280;37327;54.254;18.504;2022-09-01T10:11:00;101650.05;;;16.21;70.39
51259;BME280;37327;54.254;18.504;2022-09-01T10:14:19;101652.19;;;16.26;70.46
51259;BME280;37327;54.254;18.504;2022-09-01T10:17:33;101654.67;;;16.42;69.48
51259;BME280;37327;54.254;18.504;2022-09-01T10:20:55;101646.52;;;16.64;68.34
51259;BME280;37327;54.254;18.504;2022-09-01T10:27:34;101653.30;;;17.11;65.03
51259;BME280;37327;54.254;18.504;2022-09-01T10:30:46;101664.81;;;17.34;64.98
51259;BME280;37327;54.254;18.504;2022-09-01T10:33:59;101663.27;;;17.25;65.05
51259;BME280;37327;54.254;18.504;2022-09-01T10:37:20;101672.98;;;16.85;63.82
51259;BME280;37327;54.254;18.504;2022-09-01T10:43:46;101676.69;;;16.41;66.14
51259;BME280;37327;54.254;18.504;2022-09-01T10:46:52;101675.05;;;16.46;66.65
51259;BME280;37327;54.254;18.504;2022-09-01T10:49:59;101672.23;;;16.54;66.58
51259;BME280;37327;54.254;18.504;2022-09-01T10:53:05;101668.57;;;17.05;67.28
51259;BME280;37327;54.254;18.504;2022-09-01T10:56:25;101672.70;;;17.51;63.63
51259;BME280;37327;54.254;18.504;2022-09-01T10:59:37;101662.69;;;17.65;61.32
51259;BME280;37327;54.254;18.504;2022-09-01T11:06:42;101674.15;;;17.82;58.64
51259;BME280;37327;54.254;18.504;2022-09-01T11:09:46;101671.99;;;18.05;58.49
51259;BME280;37327;54.254;18.504;2022-09-01T11:29:57;101637.13;;;19.09;55.86
51259;BME280;37327;54.254;18.504;2022-09-01T11:36:46;101632.49;;;19.03;52.08
51259;BME280;37327;54.254;18.504;2022-09-01T11:40:02;101634.99;;;18.84;51.44
51259;BME280;37327;54.254;18.504;2022-09-01T11:43:12;101634.59;;;18.87;51.84
51259;BME280;37327;54.254;18.504;2022-09-01T11:46:30;101649.94;;;18.82;48.87
51259;BME280;37327;54.254;18.504;2022-09-01T11:53:12;101647.59;;;18.65;49.77
51259;BME280;37327;54.254;18.504;2022-09-01T11:56:25;101641.05;;;18.66;50.39
51259;BME280;37327;54.254;18.504;2022-09-01T11:59:39;101638.32;;;18.66;50.52
51259;BME280;37327;54.254;18.504;2022-09-01T12:03:18;101630.30;;;18.65;50.60
51259;BME280;37327;54.254;18.504;2022-09-01T12:06:25;101635.58;;;18.66;49.88
51259;BME280;37327;54.254;18.504;2022-09-01T12:09:44;101639.55;;;18.57;50.14
51259;BME280;37327;54.254;18.504;2022-09-01T12:12:48;101653.77;;;18.26;49.18
51259;BME280;37327;54.254;18.504;2022-09-01T12:19:30;101645.92;;;17.68;51.38
51259;BME280;37327;54.254;18.504;2022-09-01T12:22:59;101660.52;;;17.53;52.83
51259;BME280;37327;54.254;18.504;2022-09-01T12:26:13;101662.73;;;17.36;52.69
51259;BME280;37327;54.254;18.504;2022-09-01T12:29:25;101659.48;;;17.26;53.74
51259;BME280;37327;54.254;18.504;2022-09-01T12:32:29;101659.59;;;17.11;53.94
51259;BME280;37327;54.254;18.504;2022-09-01T12:35:34;101650.23;;;17.21;54.66
51259;BME280;37327;54.254;18.504;2022-09-01T12:38:40;101648.76;;;17.53;55.75
51259;BME280;37327;54.254;18.504;2022-09-01T12:45:07;101661.23;;;17.62;54.88
51259;BME280;37327;54.254;18.504;2022-09-01T12:48:29;101652.38;;;17.60;55.70
51259;BME280;37327;54.254;18.504;2022-09-01T12:51:34;101650.13;;;17.70;56.57
51259;BME280;37327;54.254;18.504;2022-09-01T12:54:43;101653.61;;;17.86;56.28
51259;BME280;37327;54.254;18.504;2022-09-01T12:58:03;101665.84;;;17.96;55.88
51259;BME280;37327;54.254;18.504;2022-09-01T13:01:24;101661.63;;;17.94;55.27
51259;BME280;37327;54.254;18.504;2022-09-01T13:04:33;101662.69;;;17.93;55.63
51259;BME280;37327;54.254;18.504;2022-09-01T13:11:01;101657.44;;;17.98;55.75
51259;BME280;37327;54.254;18.504;2022-09-01T13:17:15;101657.30;;;17.71;54.79
51259;BME280;37327;54.254;18.504;2022-09-01T13:20:20;101650.52;;;17.67;54.99
51259;BME280;37327;54.254;18.504;2022-09-01T13:23:25;101649.73;;;17.73;54.69
51259;BME280;37327;54.254;18.504;2022-09-01T13:26:32;101653.32;;;17.46;54.05
51259;BME280;37327;54.254;18.504;2022-09-01T13:29:36;101658.41;;;17.21;54.54
51259;BME280;37327;54.254;18.504;2022-09-01T13:32:47;101651.74;;;17.02;55.03
51259;BME280;37327;54.254;18.504;2022-09-01T13:35:55;101650.76;;;17.09;56.33
51259;BME280;37327;54.254;18.504;2022-09-01T13:39:07;101656.10;;;17.24;55.92
51259;BME280;37327;54.254;18.504;2022-09-01T13:42:20;101656.27;;;17.16;56.46
51259;BME280;37327;54.254;18.504;2022-09-01T13:45:31;101652.66;;;17.09;56.80
51259;BME280;37327;54.254;18.504;2022-09-01T13:48:37;101651.66;;;16.95;56.57
51259;BME280;37327;54.254;18.504;2022-09-01T13:51:52;101658.32;;;16.86;57.85
51259;BME280;37327;54.254;18.504;2022-09-01T13:54:59;101643.93;;;16.98;58.87
51259;BME280;37327;54.254;18.504;2022-09-01T13:58:14;101643.45;;;17.16;58.07
51259;BME280;37327;54.254;18.504;2022-09-01T14:01:24;101657.66;;;17.33;57.66
51259;BME280;37327;54.254;18.504;2022-09-01T14:05:00;101660.80;;;17.30;57.41
51259;BME280;37327;54.254;18.504;2022-09-01T14:08:16;101653.30;;;17.11;56.20
51259;BME280;37327;54.254;18.504;2022-09-01T14:11:31;101648.37;;;17.00;57.06
51259;BME280;37327;54.254;18.504;2022-09-01T14:14:43;101663.36;;;16.89;57.15
51259;BME280;37327;54.254;18.504;2022-09-01T14:17:57;101658.70;;;16.83;56.99
51259;BME280;37327;54.254;18.504;2022-09-01T14:21:12;101658.83;;;16.96;57.14
51259;BME280;37327;54.254;18.504;2022-09-01T14:24:25;101660.27;;;17.20;56.91
51259;BME280;37327;54.254;18.504;2022-09-01T14:27:41;101661.98;;;17.21;56.34
51259;BME280;37327;54.254;18.504;2022-09-01T14:30:55;101668.15;;;17.08;56.39
51259;BME280;37327;54.254;18.504;2022-09-01T14:34:04;101671.77;;;16.87;56.79
51259;BME280;37327;54.254;18.504;2022-09-01T14:37:17;101674.42;;;16.66;56.95
51259;BME280;37327;54.254;18.504;2022-09-01T14:40:30;101654.48;;;16.44;57.22
51259;BME280;37327;54.254;18.504;2022-09-01T14:43:41;101669.23;;;16.49;57.67
51259;BME280;37327;54.254;18.504;2022-09-01T14:46:48;101659.71;;;16.60;57.67
51259;BME280;37327;54.254;18.504;2022-09-01T14:50:02;101659.30;;;16.63;56.49
51259;BME280;37327;54.254;18.504;2022-09-01T14:53:18;101657.50;;;16.70;56.24
51259;BME280;37327;54.254;18.504;2022-09-01T14:56:34;101654.45;;;16.80;55.49
51259;BME280;37327;54.254;18.504;2022-09-01T14:59:47;101659.80;;;16.88;55.66
51259;BME280;37327;54.254;18.504;2022-09-01T15:02:58;101658.37;;;16.92;55.20
51259;BME280;37327;54.254;18.504;2022-09-01T15:06:11;101653.70;;;16.86;55.57
51259;BME280;37327;54.254;18.504;2022-09-01T15:09:16;101665.63;;;16.85;56.17
51259;BME280;37327;54.254;18.504;2022-09-01T15:12:23;101661.80;;;16.80;56.34
51259;BME280;37327;54.254;18.504;2022-09-01T15:15:38;101665.16;;;16.60;55.73
51259;BME280;37327;54.254;18.504;2022-09-01T15:18:53;101656.96;;;16.38;57.07
51259;BME280;37327;54.254;18.504;2022-09-01T15:22:08;101646.50;;;16.42;58.02
51259;BME280;37327;54.254;18.504;2022-09-01T15:25:25;101657.49;;;16.49;58.29
51259;BME280;37327;54.254;18.504;2022-09-01T15:28:41;101656.56;;;16.42;58.64
51259;BME280;37327;54.254;18.504;2022-09-01T15:31:54;101667.00;;;16.38;59.98
51259;BME280;37327;54.254;18.504;2022-09-01T15:35:04;101660.90;;;16.36;60.31
51259;BME280;37327;54.254;18.504;2022-09-01T15:38:18;101661.67;;;16.30;61.03
51259;BME280;37327;54.254;18.504;2022-09-01T15:41:49;101662.06;;;16.27;61.52
51259;BME280;37327;54.254;18.504;2022-09-01T15:45:08;101652.96;;;16.19;62.03
51259;BME280;37327;54.254;18.504;2022-09-01T15:48:20;101647.11;;;16.23;62.89
51259;BME280;37327;54.254;18.504;2022-09-01T15:51:40;101660.83;;;16.29;63.31
51259;BME280;37327;54.254;18.504;2022-09-01T15:54:52;101652.25;;;16.32;62.69
51259;BME280;37327;54.254;18.504;2022-09-01T15:58:04;101653.12;;;16.33;62.45
51259;BME280;37327;54.254;18.504;2022-09-01T16:01:20;101651.05;;;16.35;62.05
51259;BME280;37327;54.254;18.504;2022-09-01T16:04:28;101657.92;;;16.31;60.95
51259;BME280;37327;54.254;18.504;2022-09-01T16:07:38;101650.05;;;16.21;60.30
51259;BME280;37327;54.254;18.504;2022-09-01T16:11:10;101652.02;;;16.12;60.85
51259;BME280;37327;54.254;18.504;2022-09-01T16:14:23;101655.04;;;16.03;61.17
51259;BME280;37327;54.254;18.504;2022-09-01T16:17:44;101653.45;;;15.93;61.94
51259;BME280;37327;54.254;18.504;2022-09-01T16:24:15;101654.50;;;15.77;62.74
51259;BME280;37327;54.254;18.504;2022-09-01T16:27:34;101648.65;;;15.66;63.13
51259;BME280;37327;54.254;18.504;2022-09-01T16:30:39;101659.81;;;15.56;63.50
51259;BME280;37327;54.254;18.504;2022-09-01T16:34:14;101663.10;;;15.51;64.16
51259;BME280;37327;54.254;18.504;2022-09-01T16:37:37;101661.97;;;15.46;64.52
51259;BME280;37327;54.254;18.504;2022-09-01T16:44:25;101655.87;;;15.44;65.09
51259;BME280;37327;54.254;18.504;2022-09-01T16:54:28;101656.26;;;15.55;65.24
51259;BME280;37327;54.254;18.504;2022-09-01T17:07:56;101657.76;;;15.43;66.26
51259;BME280;37327;54.254;18.504;2022-09-01T17:11:16;101657.63;;;15.36;66.43
51259;BME280;37327;54.254;18.504;2022-09-01T17:18:08;101661.28;;;15.29;67.94
51259;BME280;37327;54.254;18.504;2022-09-01T17:21:20;101660.14;;;15.23;67.62
51259;BME280;37327;54.254;18.504;2022-09-01T17:24:41;101654.25;;;15.19;67.26
51259;BME280;37327;54.254;18.504;2022-09-01T17:28:02;101658.16;;;15.17;68.07
51259;BME280;37327;54.254;18.504;2022-09-01T17:31:27;101664.52;;;15.09;68.44
51259;BME280;37327;54.254;18.504;2022-09-01T17:44:51;101671.36;;;14.82;69.79
51259;BME280;37327;54.254;18.504;2022-09-01T17:48:17;101684.19;;;14.73;69.94
51259;BME280;37327;54.254;18.504;2022-09-01T18:01:51;101690.86;;;14.63;69.96
51259;BME280;37327;54.254;18.504;2022-09-01T18:05:13;101695.63;;;14.60;70.14
51259;BME280;37327;54.254;18.504;2022-09-01T18:12:02;101700.74;;;14.55;70.29
51259;BME280;37327;54.254;18.504;2022-09-01T18:15:19;101703.14;;;14.50;70.71
51259;BME280;37327;54.254;18.504;2022-09-01T18:18:36;101700.13;;;14.45;70.77
51259;BME280;37327;54.254;18.504;2022-09-01T18:21:59;101700.47;;;14.42;71.40
51259;BME280;37327;54.254;18.504;2022-09-01T18:25:08;101702.38;;;14.33;72.09
51259;BME280;37327;54.254;18.504;2022-09-01T18:41:42;101707.80;;;13.94;74.37
51259;BME280;37327;54.254;18.504;2022-09-01T18:44:50;101704.78;;;13.89;74.46
51259;BME280;37327;54.254;18.504;2022-09-01T18:58:23;101716.37;;;13.66;75.58
51259;BME280;37327;54.254;18.504;2022-09-01T19:01:37;101712.46;;;13.60;75.82
51259;BME280;37327;54.254;18.504;2022-09-01T19:04:49;101713.84;;;13.56;76.09
51259;BME280;37327;54.254;18.504;2022-09-01T19:21:29;101718.09;;;13.26;77.08
51259;BME280;37327;54.254;18.504;2022-09-01T19:24:51;101723.48;;;13.18;77.17
51259;BME280;37327;54.254;18.504;2022-09-01T19:28:21;101724.01;;;13.13;77.53